Time;durP1;ratioP1;P1;durP2;ratioP2;P2;SDS_P1;SDS_P2;PMS_P1;PMS_P2;Temp;Humidity;BMP_temperature;BMP_pressure;BME280_temperature;BME280_humidity;BME280_pressure;Samples;Min_cycle;Max_cycle;Signal;HPM_P1;HPM_P2
2024/02/14 00:01:01;;;;;;;4.55;3.20;;;4.50;57.70;;;;;;5095982;28;20243;-69
2024/02/14 00:03:28;;;;;;;4.10;2.65;;;4.40;57.70;;;;;;5076037;28;20539;-69
2024/02/14 00:05:57;;;;;;;5.05;3.40;;;4.40;57.90;;;;;;5075750;28;20194;-69
2024/02/14 00:08:24;;;;;;;5.03;3.35;;;4.30;58.10;;;;;;5075030;28;20555;-68
2024/02/14 00:10:51;;;;;;;7.38;2.92;;;4.30;58.60;;;;;;5075617;28;20343;-69
2024/02/14 00:13:20;;;;;;;6.70;3.00;;;4.20;59.10;;;;;;5075388;28;20680;-69
2024/02/14 00:15:52;;;;;;;6.22;3.60;;;4.20;59.40;;;;;;5074348;28;20270;-69
2024/02/14 00:18:35;;;;;;;4.65;2.63;;;4.20;59.70;;;;;;5074869;28;20185;-69
2024/02/14 00:21:07;;;;;;;6.68;3.83;;;4.20;59.80;;;;;;5073480;28;20190;-68
2024/02/14 00:23:48;;;;;;;8.45;4.05;;;4.20;59.90;;;;;;5081993;28;20251;-68
2024/02/14 00:26:15;;;;;;;5.35;2.40;;;4.20;60.10;;;;;;5095434;28;20182;-68
2024/02/14 00:28:44;;;;;;;5.90;2.65;;;4.20;60.50;;;;;;5095485;28;20673;-68
2024/02/14 00:31:13;;;;;;;8.63;2.90;;;4.30;60.40;;;;;;5095584;28;20229;-67
2024/02/14 00:33:42;;;;;;;4.18;2.58;;;4.40;60.10;;;;;;5091267;28;20259;-66
2024/02/14 00:36:11;;;;;;;20.27;3.05;;;4.40;60.40;;;;;;5075575;28;20273;-67
2024/02/14 00:38:40;;;;;;;3.85;2.67;;;4.40;60.10;;;;;;5075164;28;20225;-68
2024/02/14 00:41:11;;;;;;;4.45;2.90;;;4.50;60.00;;;;;;5075026;28;20257;-68
2024/02/14 00:43:44;;;;;;;6.43;2.85;;;4.50;59.80;;;;;;5075530;28;20239;-68
2024/02/14 00:46:19;;;;;;;6.88;2.95;;;4.50;59.70;;;;;;5075299;28;20267;-68
2024/02/14 00:48:47;;;;;;;3.28;1.95;;;4.60;59.60;;;;;;5075100;28;20201;-68
2024/02/14 00:51:14;;;;;;;4.85;2.55;;;4.60;59.40;;;;;;5075422;28;20190;-68
2024/02/14 00:53:45;;;;;;;4.50;2.45;;;4.70;59.30;;;;;;5075101;28;20267;-68
2024/02/14 00:56:14;;;;;;;3.50;2.47;;;4.70;58.90;;;;;;5075364;28;20186;-68
2024/02/14 00:58:44;;;;;;;3.40;2.08;;;4.70;58.70;;;;;;5074764;28;20221;-68
2024/02/14 01:01:16;;;;;;;5.97;2.78;;;4.70;58.70;;;;;;5074730;28;20194;-68
2024/02/14 01:03:48;;;;;;;4.47;1.95;;;4.70;58.70;;;;;;5074808;28;20673;-68
2024/02/14 01:06:16;;;;;;;5.95;3.50;;;4.70;58.80;;;;;;5074694;28;20261;-68
2024/02/14 01:08:43;;;;;;;4.28;2.22;;;4.70;59.00;;;;;;5074705;28;20189;-68
2024/02/14 01:11:11;;;;;;;5.07;2.22;;;4.70;58.90;;;;;;5074499;28;20201;-68
2024/02/14 01:13:38;;;;;;;5.38;2.53;;;4.70;59.00;;;;;;5074342;28;20210;-68
2024/02/14 01:16:07;;;;;;;4.57;2.70;;;4.60;59.00;;;;;;5074050;28;20186;-68
2024/02/14 01:18:39;;;;;;;6.70;3.05;;;4.60;59.30;;;;;;5074945;28;20273;-68
2024/02/14 01:21:09;;;;;;;3.47;1.92;;;4.60;59.50;;;;;;5074724;28;20178;-68
2024/02/14 01:23:36;;;;;;;4.97;2.90;;;4.60;59.60;;;;;;5074557;28;20289;-68
2024/02/14 01:26:03;;;;;;;6.40;2.75;;;4.70;59.80;;;;;;5074772;28;20612;-68
2024/02/14 01:28:30;;;;;;;8.85;2.28;;;4.70;59.80;;;;;;5079694;28;20185;-68
2024/02/14 01:31:00;;;;;;;4.38;2.55;;;4.70;59.80;;;;;;5094762;28;20574;-68
2024/02/14 01:33:30;;;;;;;4.03;2.70;;;4.70;59.50;;;;;;5094301;28;20266;-68
2024/02/14 01:35:59;;;;;;;3.88;2.17;;;4.70;59.90;;;;;;5094239;28;20182;-68
2024/02/14 01:38:26;;;;;;;5.60;2.75;;;4.70;59.30;;;;;;5094765;28;20272;-68
2024/02/14 01:40:53;;;;;;;5.50;3.05;;;4.70;59.30;;;;;;5093296;28;20227;-68
2024/02/14 01:43:21;;;;;;;4.78;2.05;;;4.60;59.50;;;;;;5094733;28;20276;-68
2024/02/14 01:45:48;;;;;;;3.75;2.25;;;4.60;59.20;;;;;;5094353;28;20202;-68
2024/02/14 01:48:18;;;;;;;3.83;2.08;;;4.60;59.20;;;;;;5094441;28;20594;-68
2024/02/14 01:50:47;;;;;;;3.70;1.90;;;4.60;59.30;;;;;;5094433;28;20280;-68
2024/02/14 01:53:14;;;;;;;5.78;3.35;;;4.50;59.40;;;;;;5093819;28;20217;-68
2024/02/14 01:55:42;;;;;;;4.90;2.60;;;4.50;59.30;;;;;;5094309;28;20224;-68
2024/02/14 01:58:12;;;;;;;4.80;2.60;;;4.50;58.90;;;;;;5094191;28;20225;-68
2024/02/14 02:00:47;;;;;;;5.10;2.03;;;4.50;59.00;;;;;;5093938;28;20178;-68
2024/02/14 02:03:15;;;;;;;6.55;2.10;;;4.40;59.10;;;;;;5094114;28;20188;-68
2024/02/14 02:05:46;;;;;;;4.00;2.50;;;4.30;59.10;;;;;;5094193;28;20220;-68
2024/02/14 02:08:14;;;;;;;4.15;2.15;;;4.30;59.20;;;;;;5088931;28;20228;-68
2024/02/14 02:10:44;;;;;;;3.70;2.40;;;4.30;59.60;;;;;;5073443;28;20197;-68
2024/02/14 02:13:11;;;;;;;6.40;2.65;;;4.30;59.70;;;;;;5073348;28;20213;-68
2024/02/14 02:15:38;;;;;;;4.78;2.38;;;4.20;59.60;;;;;;5073471;28;20190;-69
2024/02/14 02:18:06;;;;;;;4.13;2.53;;;4.30;59.70;;;;;;5073392;28;20499;-68
2024/02/14 02:20:34;;;;;;;5.38;3.20;;;4.30;59.70;;;;;;5073700;28;20194;-68
2024/02/14 02:23:09;;;;;;;6.30;3.35;;;4.30;59.70;;;;;;5073692;28;20259;-68
2024/02/14 02:25:36;;;;;;;5.55;3.50;;;4.30;59.80;;;;;;5073430;28;20184;-68
2024/02/14 02:28:03;;;;;;;6.22;2.38;;;4.30;59.30;;;;;;5073478;28;20273;-68
2024/02/14 02:30:30;;;;;;;3.80;2.90;;;4.20;59.30;;;;;;5073551;28;20240;-68
2024/02/14 02:32:58;;;;;;;5.93;2.92;;;4.30;59.00;;;;;;5072622;28;20750;-68
2024/02/14 02:35:30;;;;;;;5.20;2.30;;;4.20;59.10;;;;;;5073604;28;20194;-68
2024/02/14 02:37:57;;;;;;;4.25;2.60;;;4.20;59.40;;;;;;5072790;28;20194;-68
2024/02/14 02:40:27;;;;;;;4.68;2.33;;;4.10;59.50;;;;;;5073459;28;20192;-68
2024/02/14 02:42:54;;;;;;;5.43;3.10;;;4.10;60.00;;;;;;5073279;28;20313;-68
2024/02/14 02:45:21;;;;;;;6.10;2.70;;;4.20;60.10;;;;;;5079737;28;20217;-68
2024/02/14 02:47:51;;;;;;;3.80;2.30;;;4.20;59.80;;;;;;5093565;28;20292;-68
2024/02/14 02:50:19;;;;;;;4.88;1.63;;;4.20;59.40;;;;;;5093638;28;20221;-69
2024/02/14 02:52:47;;;;;;;4.28;2.38;;;4.20;59.40;;;;;;5093464;28;20652;-68
2024/02/14 02:55:17;;;;;;;3.30;2.05;;;4.20;59.40;;;;;;5097579;28;20201;-68
2024/02/14 02:57:45;;;;;;;4.55;2.30;;;4.10;59.70;;;;;;5096909;28;20186;-68
2024/02/14 03:00:13;;;;;;;4.38;2.42;;;4.10;59.20;;;;;;5097360;28;20186;-68
2024/02/14 03:02:44;;;;;;;4.10;2.20;;;4.00;59.30;;;;;;5097258;28;20334;-68
2024/02/14 03:05:17;;;;;;;3.60;2.30;;;4.00;59.60;;;;;;5097698;28;20543;-68
2024/02/14 03:07:47;;;;;;;4.60;2.30;;;3.90;59.50;;;;;;5097313;28;20188;-68
2024/02/14 03:10:22;;;;;;;12.07;2.17;;;3.90;59.80;;;;;;5094176;28;20193;-68
2024/02/14 03:12:51;;;;;;;2.92;1.67;;;3.80;59.80;;;;;;5076692;28;20205;-68
2024/02/14 03:15:19;;;;;;;3.28;1.65;;;3.70;60.10;;;;;;5077213;28;20213;-68
2024/02/14 03:17:46;;;;;;;4.75;2.00;;;3.60;60.30;;;;;;5077075;28;20190;-68
2024/02/14 03:20:15;;;;;;;4.50;2.15;;;3.60;60.70;;;;;;5076945;28;20191;-68
2024/02/14 03:22:44;;;;;;;3.95;2.42;;;3.60;60.70;;;;;;5076347;28;20186;-68
2024/02/14 03:25:14;;;;;;;5.20;2.03;;;3.70;60.50;;;;;;5076913;28;20663;-68
2024/02/14 03:27:47;;;;;;;3.55;1.92;;;3.70;59.90;;;;;;5076528;28;20194;-67
2024/02/14 03:30:16;;;;;;;4.03;3.28;;;3.70;60.10;;;;;;5076767;28;20210;-68
2024/02/14 03:32:44;;;;;;;4.13;1.65;;;3.70;60.10;;;;;;5076179;28;20644;-68
2024/02/14 03:35:13;;;;;;;4.65;1.88;;;3.70;59.80;;;;;;5076759;28;20243;-68
2024/02/14 03:37:40;;;;;;;4.80;1.80;;;3.70;59.30;;;;;;5076332;28;20257;-68
2024/02/14 03:40:09;;;;;;;2.53;1.15;;;3.60;59.10;;;;;;5076736;28;20194;-68
2024/02/14 03:42:39;;;;;;;2.85;1.50;;;3.60;58.90;;;;;;5076770;28;20714;-68
2024/02/14 03:45:08;;;;;;;2.70;1.05;;;3.70;58.70;;;;;;5076585;28;20185;-68
2024/02/14 03:47:39;;;;;;;4.47;3.97;;;3.70;59.00;;;;;;5076537;28;20197;-67
2024/02/14 03:50:08;;;;;;;2.95;1.60;;;3.50;59.30;;;;;;5078964;28;20594;-68
2024/02/14 03:52:35;;;;;;;3.28;1.63;;;3.50;59.80;;;;;;5096597;28;20277;-67
2024/02/14 03:55:03;;;;;;;4.82;2.33;;;3.50;60.00;;;;;;5096258;28;20281;-67
2024/02/14 03:57:35;;;;;;;2.75;1.42;;;3.50;60.20;;;;;;5096812;28;20568;-68
2024/02/14 04:00:02;;;;;;;2.90;1.60;;;3.50;60.00;;;;;;5096758;28;20178;-68
2024/02/14 04:02:29;;;;;;;3.58;1.55;;;3.60;60.10;;;;;;5096162;28;20207;-68
2024/02/14 04:05:02;;;;;;;8.38;2.05;;;3.60;60.10;;;;;;5091587;28;20285;-68
2024/02/14 04:07:36;;;;;;;2.55;1.65;;;3.60;59.90;;;;;;5076126;28;20189;-67
2024/02/14 04:10:03;;;;;;;2.75;1.50;;;3.60;59.90;;;;;;5075713;28;20186;-67
2024/02/14 04:12:32;;;;;;;2.92;1.38;;;3.70;59.60;;;;;;5083638;28;20249;-67
2024/02/14 04:14:59;;;;;;;2.45;1.38;;;3.70;59.20;;;;;;5096051;28;20654;-67
2024/02/14 04:17:31;;;;;;;4.45;1.25;;;3.70;59.20;;;;;;5095835;28;20238;-67
2024/02/14 04:19:59;;;;;;;2.53;1.23;;;3.60;59.40;;;;;;5096264;28;20182;-67
2024/02/14 04:22:27;;;;;;;3.40;1.45;;;3.60;59.50;;;;;;5095804;28;20250;-68
2024/02/14 04:24:59;;;;;;;3.17;1.83;;;3.60;59.60;;;;;;5075644;28;20252;-68
2024/02/14 04:27:28;;;;;;;3.20;2.25;;;3.60;59.60;;;;;;5075495;28;20640;-68
2024/02/14 04:29:56;;;;;;;11.07;2.50;;;3.60;60.20;;;;;;5075461;28;20710;-68
2024/02/14 04:32:28;;;;;;;3.78;1.85;;;3.60;59.50;;;;;;5074573;28;20243;-68
2024/02/14 04:34:56;;;;;;;3.33;1.58;;;3.70;59.70;;;;;;5075773;28;20238;-68
2024/02/14 04:37:25;;;;;;;4.88;1.98;;;3.70;59.90;;;;;;5075587;28;20229;-68
2024/02/14 04:39:52;;;;;;;3.08;1.50;;;3.80;59.90;;;;;;5075253;28;20557;-68
2024/02/14 04:42:19;;;;;;;3.20;1.60;;;3.90;59.50;;;;;;5075089;28;20257;-67
2024/02/14 04:44:46;;;;;;;4.68;1.88;;;3.80;59.30;;;;;;5075612;28;20281;-68
2024/02/14 04:47:14;;;;;;;7.40;3.38;;;3.90;59.30;;;;;;5075300;28;20220;-68
2024/02/14 04:49:41;;;;;;;5.25;2.35;;;3.90;59.00;;;;;;5075370;28;20694;-68
2024/02/14 04:52:10;;;;;;;4.10;2.05;;;3.90;58.70;;;;;;5075198;28;20278;-68
2024/02/14 04:54:39;;;;;;;5.00;1.80;;;3.90;57.90;;;;;;5074966;28;20253;-67
2024/02/14 04:57:07;;;;;;;4.35;1.85;;;3.80;58.10;;;;;;5074910;28;20719;-68
2024/02/14 04:59:34;;;;;;;2.33;1.10;;;3.80;58.10;;;;;;5075079;28;20248;-67
2024/02/14 05:02:01;;;;;;;3.58;1.20;;;3.80;57.90;;;;;;5075167;28;20194;-68
2024/02/14 05:04:29;;;;;;;3.83;1.35;;;3.90;57.80;;;;;;5075082;28;20229;-68
2024/02/14 05:06:57;;;;;;;2.30;1.02;;;4.00;57.40;;;;;;5074988;28;20201;-67
2024/02/14 05:09:24;;;;;;;4.90;1.42;;;4.00;57.10;;;;;;5091859;28;20185;-67
2024/02/14 05:11:52;;;;;;;2.97;1.40;;;4.10;56.70;;;;;;5091408;28;20225;-68
2024/02/14 05:14:24;;;;;;;2.28;0.98;;;4.10;57.20;;;;;;5073894;28;20564;-68
2024/02/14 05:16:51;;;;;;;2.72;1.25;;;4.20;57.50;;;;;;5074071;28;20182;-68
2024/02/14 05:19:21;;;;;;;2.80;1.10;;;4.30;57.60;;;;;;5074514;28;20194;-68
2024/02/14 05:21:48;;;;;;;3.60;1.25;;;4.40;57.20;;;;;;5074694;28;20229;-68
2024/02/14 05:24:16;;;;;;;3.13;1.30;;;4.40;57.20;;;;;;5074397;28;20190;-68
2024/02/14 05:26:43;;;;;;;3.80;1.40;;;4.40;57.20;;;;;;5074731;28;20186;-68
2024/02/14 05:29:11;;;;;;;3.63;2.22;;;4.50;56.10;;;;;;5074409;28;20213;-68
2024/02/14 05:31:48;;;;;;;4.95;2.33;;;4.60;55.60;;;;;;5073478;28;20182;-68
2024/02/14 05:34:15;;;;;;;3.40;1.60;;;4.60;55.60;;;;;;5073956;28;20702;-68
2024/02/14 05:36:47;;;;;;;2.15;1.13;;;4.60;55.50;;;;;;5074342;28;20620;-67
2024/02/14 05:39:22;;;;;;;4.45;1.73;;;4.60;55.00;;;;;;5074378;28;20224;-68
2024/02/14 05:41:49;;;;;;;2.65;1.35;;;4.60;55.30;;;;;;5073988;28;20229;-68
2024/02/14 05:44:18;;;;;;;2.90;1.25;;;4.60;55.10;;;;;;5084238;28;20516;-68
2024/02/14 05:46:47;;;;;;;4.57;1.27;;;4.70;55.10;;;;;;5081842;28;20193;-68
2024/02/14 05:49:15;;;;;;;2.78;1.20;;;4.70;55.50;;;;;;5074393;28;20552;-68
2024/02/14 05:51:43;;;;;;;3.88;1.20;;;4.80;55.90;;;;;;5073874;28;20281;-68
2024/02/14 05:54:10;;;;;;;3.25;1.17;;;4.80;55.60;;;;;;5073688;28;20304;-68
2024/02/14 05:56:38;;;;;;;3.10;1.45;;;4.80;55.90;;;;;;5074089;28;20663;-68
2024/02/14 05:59:10;;;;;;;2.55;1.52;;;4.80;56.20;;;;;;5073399;28;20551;-68
2024/02/14 06:01:39;;;;;;;4.47;1.95;;;4.80;56.60;;;;;;5071710;28;20197;-69
2024/02/14 06:04:08;;;;;;;3.38;1.38;;;4.90;57.00;;;;;;5073108;28;20196;-68
2024/02/14 06:06:38;;;;;;;5.80;1.75;;;4.90;56.90;;;;;;5073215;28;20190;-68
2024/02/14 06:09:10;;;;;;;4.10;1.70;;;4.90;56.90;;;;;;5073135;28;20186;-68
2024/02/14 06:11:44;;;;;;;5.93;2.55;;;4.90;57.00;;;;;;5073480;28;20546;-68
2024/02/14 06:14:12;;;;;;;5.97;3.50;;;5.00;56.60;;;;;;5073337;28;20205;-68
2024/02/14 06:16:44;;;;;;;5.18;2.92;;;5.00;56.20;;;;;;5073322;28;20244;-68
2024/02/14 06:19:12;;;;;;;4.63;2.30;;;5.00;56.30;;;;;;5073024;28;20179;-70
2024/02/14 06:21:43;;;;;;;5.22;2.03;;;5.00;56.40;;;;;;5072980;28;20273;-68
2024/02/14 06:24:13;;;;;;;4.47;2.42;;;5.10;56.40;;;;;;5072988;28;20182;-68
2024/02/14 06:26:43;;;;;;;5.20;2.47;;;5.20;56.40;;;;;;5070678;28;20190;-69
2024/02/14 06:29:14;;;;;;;6.95;2.80;;;5.20;56.80;;;;;;5072015;28;20196;-68
2024/02/14 06:31:43;;;;;;;6.30;2.78;;;5.20;57.10;;;;;;5073137;28;20217;-68
2024/02/14 06:34:11;;;;;;;6.63;3.58;;;5.20;57.00;;;;;;5072449;28;20266;-67
2024/02/14 06:36:38;;;;;;;5.95;3.65;;;5.10;56.50;;;;;;5072610;28;20175;-67
2024/02/14 06:39:09;;;;;;;5.50;3.03;;;5.10;56.60;;;;;;5072477;28;20191;-68
2024/02/14 06:41:36;;;;;;;6.95;3.03;;;5.10;57.00;;;;;;5072582;28;20578;-68
2024/02/14 06:44:04;;;;;;;5.53;3.15;;;5.10;57.30;;;;;;5072117;28;20198;-68
2024/02/14 06:46:37;;;;;;;5.78;2.67;;;5.20;57.10;;;;;;5072096;28;20189;-68
2024/02/14 06:49:06;;;;;;;6.25;2.25;;;5.20;56.80;;;;;;5072751;28;20209;-68
2024/02/14 06:51:33;;;;;;;4.80;2.50;;;5.20;56.40;;;;;;5069848;28;20228;-68
2024/02/14 06:54:01;;;;;;;5.75;2.50;;;5.20;56.20;;;;;;5072023;28;20676;-68
2024/02/14 06:56:37;;;;;;;3.75;2.05;;;5.10;56.10;;;;;;5072522;28;20281;-68
2024/02/14 06:59:09;;;;;;;6.05;3.50;;;5.10;56.50;;;;;;5089989;28;20190;-68
2024/02/14 07:01:40;;;;;;;6.43;3.72;;;5.20;56.30;;;;;;5092503;28;20182;-68
2024/02/14 07:04:16;;;;;;;5.50;3.13;;;5.20;56.10;;;;;;5092512;28;20185;-68
2024/02/14 07:06:43;;;;;;;5.72;2.67;;;5.20;55.60;;;;;;5077178;28;20190;-69
2024/02/14 07:09:10;;;;;;;4.20;2.70;;;5.20;55.60;;;;;;5071263;28;20214;-68
2024/02/14 07:11:38;;;;;;;5.55;3.30;;;5.20;55.90;;;;;;5071553;28;20197;-68
2024/02/14 07:14:09;;;;;;;3.30;1.90;;;5.20;56.00;;;;;;5071769;28;20567;-69
2024/02/14 07:16:38;;;;;;;3.47;2.00;;;5.20;54.50;;;;;;5071498;28;20252;-68
2024/02/14 07:19:06;;;;;;;4.15;2.47;;;5.20;54.30;;;;;;5070501;28;20202;-68
2024/02/14 07:21:34;;;;;;;4.53;2.28;;;5.20;54.30;;;;;;5072652;28;20724;-68
2024/02/14 07:24:01;;;;;;;2.88;1.50;;;5.30;53.90;;;;;;5072941;28;20212;-69
2024/02/14 07:26:29;;;;;;;6.55;1.80;;;5.40;53.90;;;;;;5072888;28;20289;-68
2024/02/14 07:28:56;;;;;;;2.90;1.38;;;5.60;52.70;;;;;;5072947;28;20194;-69
2024/02/14 07:31:29;;;;;;;3.03;1.70;;;5.60;52.50;;;;;;5072895;28;20204;-68
2024/02/14 07:33:56;;;;;;;3.92;2.20;;;5.60;52.90;;;;;;5072483;28;20269;-68
2024/02/14 07:36:23;;;;;;;4.80;1.95;;;5.60;53.40;;;;;;5072834;28;20243;-68
2024/02/14 07:38:52;;;;;;;3.67;2.00;;;5.70;53.40;;;;;;5073183;28;20608;-68
2024/02/14 07:41:23;;;;;;;3.42;1.60;;;5.80;53.20;;;;;;5076050;28;20222;-68
2024/02/14 07:43:51;;;;;;;4.32;2.20;;;5.80;52.70;;;;;;5076348;28;20273;-68
2024/02/14 07:46:23;;;;;;;4.53;2.83;;;5.90;52.70;;;;;;5076365;28;20186;-68
2024/02/14 07:48:55;;;;;;;3.75;2.00;;;5.90;52.60;;;;;;5076421;28;20174;-68
2024/02/14 07:51:22;;;;;;;4.38;2.30;;;6.00;53.10;;;;;;5076418;28;20206;-69
2024/02/14 07:53:51;;;;;;;4.65;1.55;;;6.10;53.70;;;;;;5076143;28;20222;-68
2024/02/14 07:56:18;;;;;;;5.13;1.92;;;6.20;53.50;;;;;;5075847;28;20277;-69
2024/02/14 07:58:47;;;;;;;4.63;1.70;;;6.30;53.60;;;;;;5076196;28;20277;-69
2024/02/14 08:01:19;;;;;;;4.82;1.90;;;6.40;51.00;;;;;;5075967;28;20194;-68
2024/02/14 08:03:51;;;;;;;3.58;1.73;;;6.60;51.00;;;;;;5075749;28;20178;-68
2024/02/14 08:06:24;;;;;;;4.28;1.80;;;6.60;49.90;;;;;;5075735;28;20178;-68
2024/02/14 08:08:57;;;;;;;5.45;1.58;;;6.70;48.40;;;;;;5075702;28;20228;-68
2024/02/14 08:11:24;;;;;;;2.10;1.13;;;6.80;46.80;;;;;;5076057;28;20532;-68
2024/02/14 08:13:52;;;;;;;7.53;1.65;;;6.90;46.70;;;;;;5075508;28;20240;-69
2024/02/14 08:16:24;;;;;;;3.95;1.48;;;7.10;47.70;;;;;;5075469;28;20332;-69
2024/02/14 08:18:54;;;;;;;3.67;2.00;;;7.30;47.60;;;;;;5075491;28;20645;-69
2024/02/14 08:21:23;;;;;;;3.75;1.83;;;7.50;48.90;;;;;;5075931;28;20186;-69
2024/02/14 08:23:55;;;;;;;3.10;1.70;;;7.60;49.60;;;;;;5075658;28;20239;-69
2024/02/14 08:26:24;;;;;;;3.10;1.67;;;7.70;49.70;;;;;;5075669;28;20239;-69
2024/02/14 08:28:51;;;;;;;3.95;1.67;;;7.80;50.30;;;;;;5075748;28;20191;-69
2024/02/14 08:31:18;;;;;;;4.57;1.70;;;7.90;49.40;;;;;;5075362;28;20221;-69
2024/02/14 08:33:50;;;;;;;3.92;1.80;;;8.10;49.90;;;;;;5075429;28;20194;-69
2024/02/14 08:36:22;;;;;;;3.75;1.85;;;8.30;49.60;;;;;;5075036;28;20293;-68
2024/02/14 08:38:49;;;;;;;3.20;1.55;;;8.40;48.10;;;;;;5075075;28;20182;-69
2024/02/14 08:41:19;;;;;;;4.65;2.00;;;8.40;48.40;;;;;;5075177;28;20249;-69
2024/02/14 08:43:50;;;;;;;3.45;1.50;;;8.50;49.50;;;;;;5074904;28;20277;-69
2024/02/14 08:46:19;;;;;;;4.85;1.75;;;8.60;48.80;;;;;;5075428;28;20189;-69
2024/02/14 08:48:51;;;;;;;2.83;1.33;;;8.70;49.30;;;;;;5074861;28;20675;-69
2024/02/14 08:51:20;;;;;;;2.90;1.50;;;8.80;49.40;;;;;;5075126;28;20182;-69
2024/02/14 08:53:47;;;;;;;2.92;1.65;;;8.80;50.10;;;;;;5074704;28;20186;-69
2024/02/14 08:56:14;;;;;;;3.30;1.42;;;8.80;49.30;;;;;;5074913;28;20267;-69
2024/02/14 08:58:51;;;;;;;6.47;1.90;;;8.80;48.70;;;;;;5075099;28;20190;-69
2024/02/14 09:01:29;;;;;;;3.35;1.63;;;8.80;49.30;;;;;;5075140;28;20600;-69
2024/02/14 09:04:01;;;;;;;4.55;1.80;;;8.80;50.10;;;;;;5074960;28;20186;-68
2024/02/14 09:06:35;;;;;;;4.28;1.60;;;8.90;50.20;;;;;;5074546;28;20218;-69
2024/02/14 09:09:10;;;;;;;3.75;1.90;;;9.00;49.70;;;;;;5074956;28;20228;-69
2024/02/14 09:11:37;;;;;;;4.85;1.92;;;9.20;50.50;;;;;;5074766;28;20174;-69
2024/02/14 09:14:06;;;;;;;3.65;2.25;;;9.20;50.70;;;;;;5074675;28;20194;-69
2024/02/14 09:16:37;;;;;;;5.97;1.88;;;9.30;50.10;;;;;;5074572;28;20236;-69
2024/02/14 09:19:06;;;;;;;3.03;1.98;;;9.40;50.00;;;;;;5074695;28;20601;-69
2024/02/14 09:21:38;;;;;;;8.25;1.85;;;9.50;49.80;;;;;;5074211;28;20198;-69
2024/02/14 09:24:11;;;;;;;3.60;1.75;;;9.70;50.00;;;;;;5074664;28;20212;-69
2024/02/14 09:26:39;;;;;;;4.75;1.65;;;9.80;50.00;;;;;;5074211;28;20654;-69
2024/02/14 09:29:07;;;;;;;5.47;1.50;;;10.00;49.00;;;;;;5074386;28;20187;-69
2024/02/14 09:31:35;;;;;;;4.28;1.35;;;10.30;48.50;;;;;;5073926;28;20216;-69
2024/02/14 09:34:07;;;;;;;3.50;1.80;;;10.60;48.40;;;;;;5073913;28;20197;-69
2024/02/14 09:36:35;;;;;;;3.00;1.65;;;11.00;48.20;;;;;;5074229;28;20584;-69
2024/02/14 09:39:07;;;;;;;2.40;1.20;;;11.90;45.70;;;;;;5074217;28;20186;-69
2024/02/14 09:41:39;;;;;;;2.33;0.90;;;12.90;43.70;;;;;;5073713;28;20229;-69
2024/02/14 09:44:10;;;;;;;4.30;1.73;;;13.80;41.60;;;;;;5073639;28;20425;-69
2024/02/14 09:46:39;;;;;;;5.63;2.33;;;14.50;41.80;;;;;;5073893;28;20953;-67
2024/02/14 09:49:08;;;;;;;5.57;1.67;;;15.20;40.10;;;;;;5074100;28;20420;-68
2024/02/14 09:51:41;;;;;;;4.40;1.33;;;15.80;37.90;;;;;;5073954;28;20420;-69
2024/02/14 09:54:13;;;;;;;8.43;1.10;;;16.40;37.30;;;;;;5073868;28;20481;-68
2024/02/14 09:56:41;;;;;;;3.10;1.37;;;17.40;37.90;;;;;;5073778;28;20470;-68
2024/02/14 09:59:10;;;;;;;2.37;0.93;;;18.50;34.10;;;;;;5073887;28;20793;-68
2024/02/14 10:01:42;;;;;;;3.47;1.20;;;19.40;33.10;;;;;;5073329;28;20439;-68
2024/02/14 10:04:12;;;;;;;3.03;1.20;;;20.40;32.70;;;;;;5073559;28;20420;-68
2024/02/14 10:06:40;;;;;;;3.13;0.90;;;21.20;30.30;;;;;;5073991;28;20531;-68
2024/02/14 10:09:10;;;;;;;3.07;1.00;;;21.50;29.70;;;;;;5073724;28;20844;-68
2024/02/14 10:11:38;;;;;;;2.83;1.90;;;21.80;30.10;;;;;;5073269;28;20436;-68
2024/02/14 10:14:09;;;;;;;2.50;0.90;;;22.40;27.90;;;;;;5073336;28;20515;-68
2024/02/14 10:16:45;;;;;;;2.77;1.07;;;23.00;27.90;;;;;;5073773;28;20517;-69
2024/02/14 10:19:18;;;;;;;3.90;1.67;;;23.30;25.50;;;;;;5073566;28;20435;-67
2024/02/14 10:21:56;;;;;;;2.13;0.90;;;23.20;24.60;;;;;;5073140;28;20440;-67
2024/02/14 10:24:32;;;;;;;3.50;0.80;;;22.60;25.20;;;;;;5073544;28;20466;-68
2024/02/14 10:27:00;;;;;;;2.27;0.90;;;22.40;24.90;;;;;;5073240;28;20511;-68
2024/02/14 10:29:28;;;;;;;3.90;1.07;;;22.70;24.50;;;;;;5073183;28;20428;-68
2024/02/14 10:31:56;;;;;;;2.60;1.03;;;22.60;24.60;;;;;;5073483;28;20490;-68
2024/02/14 10:34:27;;;;;;;2.23;0.70;;;22.40;24.40;;;;;;5073150;28;20464;-68
2024/02/14 10:36:59;;;;;;;2.77;1.10;;;22.60;25.30;;;;;;5073185;28;21056;-69
2024/02/14 10:39:31;;;;;;;2.70;0.70;;;22.90;24.60;;;;;;5073065;28;20906;-69
2024/02/14 10:41:59;;;;;;;2.67;1.00;;;23.30;24.60;;;;;;5072801;28;20468;-69
2024/02/14 10:44:28;;;;;;;2.33;0.80;;;23.70;24.90;;;;;;5073282;28;20435;-68
2024/02/14 10:47:00;;;;;;;2.57;0.80;;;23.60;23.70;;;;;;5073268;28;20478;-68
2024/02/14 10:49:30;;;;;;;3.40;0.90;;;23.10;24.00;;;;;;5073397;28;20428;-67
2024/02/14 10:52:06;;;;;;;1.90;0.70;;;22.50;24.30;;;;;;5073235;28;20486;-67
2024/02/14 10:54:35;;;;;;;2.30;0.80;;;21.90;25.10;;;;;;5072955;28;20441;-68
2024/02/14 10:57:11;;;;;;;1.90;0.70;;;21.60;25.30;;;;;;5072788;28;20533;-68
2024/02/14 10:59:42;;;;;;;2.53;0.77;;;21.20;25.70;;;;;;5073234;28;20433;-68
2024/02/14 11:02:12;;;;;;;4.97;0.80;;;20.80;25.90;;;;;;5072997;28;20511;-69
2024/02/14 11:04:39;;;;;;;2.10;0.70;;;20.30;26.50;;;;;;5073130;28;20443;-68
2024/02/14 11:07:13;;;;;;;1.87;0.63;;;19.80;26.60;;;;;;5073086;28;20518;-68
2024/02/14 11:09:41;;;;;;;2.97;0.83;;;19.40;27.20;;;;;;5073147;28;20455;-68
2024/02/14 11:12:10;;;;;;;1.80;0.50;;;19.00;27.50;;;;;;5073074;28;20509;-67
2024/02/14 11:14:40;;;;;;;2.00;0.77;;;18.60;28.10;;;;;;5074627;28;20432;-68
2024/02/14 11:17:13;;;;;;;1.80;0.60;;;18.20;28.20;;;;;;5077080;28;20540;-67
2024/02/14 11:19:40;;;;;;;1.70;0.50;;;17.90;28.80;;;;;;5076593;28;20444;-68
2024/02/14 11:22:18;;;;;;;2.67;0.63;;;17.60;29.30;;;;;;5076865;28;20526;-68
2024/02/14 11:24:46;;;;;;;1.80;0.70;;;17.30;29.40;;;;;;5076820;28;20427;-68
2024/02/14 11:27:14;;;;;;;4.60;0.80;;;17.10;30.20;;;;;;5076466;28;20917;-68
2024/02/14 11:29:41;;;;;;;1.90;0.63;;;17.00;31.00;;;;;;5076749;28;20446;-68
2024/02/14 11:32:09;;;;;;;1.90;0.70;;;16.90;31.80;;;;;;5076480;28;20488;-68
2024/02/14 11:34:38;;;;;;;1.93;0.70;;;16.80;32.20;;;;;;5076661;28;20440;-68
2024/02/14 11:37:06;;;;;;;1.93;0.80;;;16.80;32.40;;;;;;5076109;28;20523;-68
2024/02/14 11:39:34;;;;;;;2.53;0.77;;;16.70;32.60;;;;;;5076542;28;20521;-68
2024/02/14 11:42:02;;;;;;;2.00;0.90;;;16.70;33.20;;;;;;5076485;28;20466;-68
2024/02/14 11:44:29;;;;;;;1.87;0.60;;;16.80;32.60;;;;;;5076224;28;20431;-68
2024/02/14 11:46:56;;;;;;;1.80;0.60;;;16.80;32.30;;;;;;5075754;28;20487;-68
2024/02/14 11:49:23;;;;;;;2.10;1.33;;;16.80;32.60;;;;;;5076338;28;20483;-68
2024/02/14 11:51:53;;;;;;;1.80;0.70;;;16.80;32.70;;;;;;5076273;28;20438;-68
2024/02/14 11:54:22;;;;;;;3.20;0.90;;;16.90;33.10;;;;;;5075866;28;20438;-68
2024/02/14 11:56:49;;;;;;;2.07;0.80;;;17.10;33.70;;;;;;5076147;28;20470;-68
2024/02/14 11:59:19;;;;;;;2.07;0.70;;;17.40;33.20;;;;;;5075892;28;20475;-68
2024/02/14 12:01:48;;;;;;;2.00;0.70;;;17.90;33.30;;;;;;5075823;28;20905;-68
2024/02/14 12:04:15;;;;;;;1.90;0.70;;;18.40;32.40;;;;;;5070698;28;20440;-68
2024/02/14 12:06:43;;;;;;;2.10;0.70;;;18.90;31.60;;;;;;5055188;28;20440;-68
2024/02/14 12:09:13;;;;;;;2.10;0.80;;;19.30;31.20;;;;;;5058290;28;20435;-68
2024/02/14 12:11:43;;;;;;;2.10;0.80;;;19.90;31.10;;;;;;5075337;28;20934;-69
2024/02/14 12:14:13;;;;;;;1.93;0.63;;;20.40;30.90;;;;;;5075050;28;20458;-68
2024/02/14 12:16:41;;;;;;;2.30;0.80;;;20.70;30.10;;;;;;5075808;28;20466;-68
2024/02/14 12:19:10;;;;;;;2.83;0.87;;;20.80;29.40;;;;;;5075463;28;20432;-68
2024/02/14 12:21:37;;;;;;;1.90;0.53;;;20.60;29.30;;;;;;5075237;28;20475;-68
2024/02/14 12:24:13;;;;;;;2.03;0.60;;;20.40;29.20;;;;;;5074959;28;20910;-68
2024/02/14 12:26:45;;;;;;;2.30;0.80;;;20.20;29.60;;;;;;5061913;28;20939;-68
2024/02/14 12:29:14;;;;;;;2.67;0.60;;;20.10;29.50;;;;;;5055187;28;20975;-68
2024/02/14 12:31:42;;;;;;;2.20;0.67;;;19.90;29.70;;;;;;5069221;28;20968;-68
2024/02/14 12:34:35;;;;;;;1.80;0.60;;;19.70;30.00;;;;;;5074552;28;20440;-68
2024/02/14 12:37:08;;;;;;;2.00;0.90;;;19.50;29.40;;;;;;5075085;28;20468;-68
2024/02/14 12:39:42;;;;;;;2.03;0.67;;;19.30;29.50;;;;;;5075189;28;20424;-69
2024/02/14 12:42:11;;;;;;;1.90;0.60;;;19.20;29.30;;;;;;5073328;28;20525;-68
2024/02/14 12:44:38;;;;;;;2.00;0.60;;;19.00;29.90;;;;;;5054692;28;20785;-68
2024/02/14 12:47:07;;;;;;;1.70;0.60;;;18.80;31.40;;;;;;5064810;28;20462;-68
2024/02/14 12:49:34;;;;;;;2.57;0.90;;;18.60;32.20;;;;;;5095314;28;20784;-68
2024/02/14 12:52:04;;;;;;;1.93;0.60;;;18.50;32.70;;;;;;5095355;28;20526;-68
2024/02/14 12:54:35;;;;;;;2.47;0.73;;;18.30;32.60;;;;;;5091161;28;20433;-68
2024/02/14 12:57:09;;;;;;;2.30;0.70;;;18.30;33.30;;;;;;5074321;28;20467;-68
2024/02/14 12:59:38;;;;;;;2.10;0.70;;;18.30;33.10;;;;;;5074478;28;20948;-68
2024/02/14 13:02:07;;;;;;;2.77;1.10;;;18.30;32.70;;;;;;5074424;28;20448;-68
2024/02/14 13:04:34;;;;;;;1.93;0.70;;;18.30;32.40;;;;;;5074763;28;20439;-68